This is the latest recevied weather packets stored in our database for station/object KK6LVQ-13. If no packets are shown the sender has not sent any weather packets the latest 10 day(s).
| Time | Temp. | Humidity | Pressure | Rain* | Wind** | Luminosity | Snow |
|---|---|---|---|---|---|---|---|
| 1777748926 | 15.56° C | 79% | 1019.6 hPa | 0 mm | - | 307 W/m² | - |
| 1777748623 | 15.56° C | 79% | 1019.6 hPa | 0 mm | - | 293 W/m² | - |
| 1777748319 | 15° C | 81% | 1019.8 hPa | 0 mm | - | 306 W/m² | - |
| 1777747712 | 15° C | 81% | 1019.6 hPa | 0 mm | - | 281 W/m² | - |
| 1777745888 | 13.89° C | 83% | 1019.6 hPa | 0 mm | - | 228 W/m² | - |
| 1777745587 | 14.44° C | 83% | 1019.7 hPa | 0 mm | - | 240 W/m² | - |
| 1777743462 | 13.33° C | 87% | 1019.7 hPa | 0 mm | - | 158 W/m² | - |
| 1777742249 | 12.78° C | 88% | 1019.3 hPa | 0 mm | - | 255 W/m² | - |
| 1777741643 | 12.22° C | 91% | 1019.7 hPa | 0 mm | - | 253 W/m² | - |
| 1777741036 | 11.67° C | 91% | 1019.6 hPa | 0 mm | - | 153 W/m² | - |
| 1777740734 | 11.67° C | 92% | 1019.6 hPa | 0 mm | - | 144 W/m² | - |
| 1777739823 | 11.67° C | 91% | 1019.5 hPa | 0 mm | - | 145 W/m² | - |
| 1777739520 | 11.67° C | 91% | 1019.6 hPa | 0 mm | - | 131 W/m² | - |
| 1777738610 | 11.67° C | 91% | 1019.5 hPa | 0 mm | - | 113 W/m² | - |
| 1777738005 | 11.67° C | 92% | 1019.6 hPa | 0 mm | - | 86 W/m² | - |
| 1777737098 | 11.11° C | 93% | 1019.7 hPa | 0 mm | - | 102 W/m² | - |
| 1777736166 | 10.56° C | 96% | 1019.5 hPa | 0 mm | - | 102 W/m² | - |
| 1777735863 | 10.56° C | 97% | 1019.3 hPa | 0 mm | - | 91 W/m² | - |
| 1777735561 | 10.56° C | 97% | 1019.2 hPa | 0 mm | - | 72 W/m² | - |
| 1777735258 | 10.56° C | 98% | 1019.3 hPa | 0 mm | - | 57 W/m² | - |
| 1777734955 | 10° C | 98% | 1019.2 hPa | 0 mm | - | 44 W/m² | - |
| 1777734652 | 10° C | 98% | 1019.3 hPa | 0 mm | - | 43 W/m² | - |
| 1777734350 | 10° C | 98% | 1019.2 hPa | 0 mm | - | 44 W/m² | - |
| 1777734045 | 10° C | 98% | 1019.1 hPa | 0 mm | - | 42 W/m² | - |
| 1777733742 | 10° C | 99% | 1019 hPa | 0 mm | - | 38 W/m² | - |
* Rain latest hour (hover to see other rain measurements)
** Current wind speed in m/s (hover to see current wind gust speed)